Time;durP1;ratioP1;P1;durP2;ratioP2;P2;SDS_P1;SDS_P2;PMS_P1;PMS_P2;Temp;Humidity;BMP_temperature;BMP_pressure;BME280_temperature;BME280_humidity;BME280_pressure;Samples;Min_cycle;Max_cycle;Signal;HPM_P1;HPM_P2
2021/04/08 04:38:37;;;;;;;11.40;4.18;;;;;;;;;;4996042;23;20046;-73
2021/04/08 04:41:27;;;;;;;9.65;4.03;;;;;;;;;;4971112;28;20092;-72
2021/04/08 04:43:53;;;;;;;9.57;4.20;;;;;;;;;;4976053;28;20074;-72
2021/04/08 04:46:48;;;;;;;;;;;;;;;;;;;;;
2021/04/08 04:49:33;;;;;;;8.23;4.22;;;;;;;;;;4984145;28;20125;-74
2021/04/08 04:51:59;;;;;;;8.55;4.20;;;;;;;;;;4967487;28;20027;-72
2021/04/08 04:54:28;;;;;;;8.38;3.60;;;;;;;;;;4964012;28;20039;-73
2021/04/08 04:56:54;;;;;;;5.82;3.33;;;;;;;;;;4975803;28;20038;-73
2021/04/08 05:02:27;;;;;;;8.32;4.00;;;;;;;;;;4930699;29;20154;-75
2021/04/08 05:04:57;;;;;;;6.95;3.63;;;;;;;;;;4939470;28;20178;-76
2021/04/08 05:07:26;;;;;;;8.77;4.20;;;;;;;;;;4978970;28;20041;-72
2021/04/08 05:09:55;;;;;;;10.68;4.28;;;;;;;;;;4986127;28;20035;-73
2021/04/08 05:12:25;;;;;;;8.63;5.10;;;;;;;;;;4988029;28;20109;-72
2021/04/08 05:14:54;;;;;;;6.53;3.88;;;;;;;;;;4983135;28;20034;-75
2021/04/08 05:17:23;;;;;;;6.15;3.17;;;;;;;;;;4965389;28;20030;-74
2021/04/08 05:19:51;;;;;;;5.97;3.60;;;;;;;;;;4965199;28;20018;-73
2021/04/08 05:22:21;;;;;;;6.60;3.55;;;;;;;;;;4967168;28;20014;-71
2021/04/08 05:24:49;;;;;;;7.55;3.60;;;;;;;;;;4967089;28;20042;-71
2021/04/08 05:27:19;;;;;;;10.93;3.88;;;;;;;;;;4964009;28;20038;-73
2021/04/08 05:29:45;;;;;;;5.40;3.35;;;;;;;;;;4964350;28;20105;-73
2021/04/08 05:32:14;;;;;;;9.43;3.92;;;;;;;;;;4962874;28;20022;-74
2021/04/08 05:34:41;;;;;;;6.43;3.65;;;;;;;;;;4965336;28;20542;-74
2021/04/08 05:37:10;;;;;;;9.93;3.97;;;;;;;;;;4957894;28;20051;-74
2021/04/08 05:39:39;;;;;;;7.93;4.20;;;;;;;;;;4957993;28;20034;-70
2021/04/08 05:42:09;;;;;;;10.50;4.07;;;;;;;;;;4957244;28;20031;-71
2021/04/08 05:44:35;;;;;;;10.05;3.88;;;;;;;;;;4957244;28;20026;-71
2021/04/08 05:47:12;;;;;;;8.05;4.20;;;;;;;;;;4957260;28;20039;-70
2021/04/08 05:49:41;;;;;;;6.15;3.90;;;;;;;;;;4956965;28;20039;-70
2021/04/08 05:52:08;;;;;;;8.52;4.07;;;;;;;;;;4957150;28;20034;-70
2021/04/08 05:54:37;;;;;;;8.68;3.90;;;;;;;;;;4956909;28;20049;-70
2021/04/08 05:57:12;;;;;;;7.88;3.83;;;;;;;;;;4957040;28;20035;-71
2021/04/08 05:59:41;;;;;;;7.05;3.95;;;;;;;;;;4957141;28;20019;-73
2021/04/08 06:02:11;;;;;;;9.07;4.15;;;;;;;;;;4956967;28;20038;-72
2021/04/08 06:04:42;;;;;;;10.43;4.38;;;;;;;;;;4957047;28;20034;-73
2021/04/08 06:07:15;;;;;;;8.57;4.28;;;;;;;;;;4957641;28;20506;-72
2021/04/08 06:09:44;;;;;;;7.05;3.83;;;;;;;;;;4958044;28;20446;-73
2021/04/08 06:12:10;;;;;;;7.05;4.03;;;;;;;;;;4956705;28;20034;-74
2021/04/08 06:14:39;;;;;;;11.25;4.18;;;;;;;;;;4956731;28;20027;-73
2021/04/08 06:17:08;;;;;;;9.73;3.85;;;;;;;;;;4956786;28;20125;-72
2021/04/08 06:19:37;;;;;;;7.65;3.50;;;;;;;;;;4956649;28;20029;-75
2021/04/08 06:22:06;;;;;;;5.30;3.33;;;;;;;;;;4958676;28;20034;-71
2021/04/08 06:24:38;;;;;;;8.70;4.10;;;;;;;;;;4956782;28;20058;-72
2021/04/08 06:27:11;;;;;;;9.88;4.28;;;;;;;;;;4956557;28;20129;-72
2021/04/08 06:29:40;;;;;;;11.07;4.43;;;;;;;;;;4956671;28;20455;-72
2021/04/08 06:32:09;;;;;;;10.10;4.10;;;;;;;;;;4962779;28;20034;-74
2021/04/08 06:34:45;;;;;;;6.93;3.70;;;;;;;;;;4959149;28;20499;-73
2021/04/08 06:37:16;;;;;;;7.13;3.65;;;;;;;;;;4973685;28;20057;-73
2021/04/08 06:39:42;;;;;;;9.00;4.13;;;;;;;;;;4956687;28;20030;-71
2021/04/08 06:42:09;;;;;;;5.15;3.22;;;;;;;;;;4973871;28;20034;-74
2021/04/08 06:44:36;;;;;;;8.45;3.90;;;;;;;;;;4956712;28;20033;-73
2021/04/08 06:47:03;;;;;;;7.97;3.15;;;;;;;;;;4956708;28;20026;-73
2021/04/08 06:49:49;;;;;;;7.25;3.20;;;;;;;;;;4956653;28;20800;-76
2021/04/08 06:52:20;;;;;;;5.72;3.40;;;;;;;;;;4966600;28;20046;-74
2021/04/08 06:54:49;;;;;;;6.78;3.45;;;;;;;;;;4975762;28;20044;-75
2021/04/08 06:57:21;;;;;;;4.45;2.97;;;;;;;;;;4975537;28;20118;-72
2021/04/08 06:59:50;;;;;;;4.32;3.03;;;;;;;;;;4975395;28;20106;-75
2021/04/08 07:02:23;;;;;;;4.05;2.63;;;;;;;;;;4975907;28;20077;-72
2021/04/08 07:04:49;;;;;;;5.95;2.88;;;;;;;;;;4993364;28;20089;-73
2021/04/08 07:07:16;;;;;;;4.03;2.72;;;;;;;;;;4993104;28;20529;-75
2021/04/08 07:09:45;;;;;;;3.80;2.53;;;;;;;;;;4971547;28;20058;-74
2021/04/08 07:12:18;;;;;;;3.40;2.40;;;;;;;;;;4973646;28;20041;-74
2021/04/08 07:14:50;;;;;;;5.25;2.72;;;;;;;;;;4956051;28;20069;-75
2021/04/08 07:17:16;;;;;;;4.95;2.50;;;;;;;;;;4956125;28;20420;-72
2021/04/08 07:19:45;;;;;;;6.53;3.90;;;;;;;;;;4956418;28;20538;-74
2021/04/08 07:22:15;;;;;;;7.22;4.28;;;;;;;;;;4956167;28;20033;-71
2021/04/08 07:24:44;;;;;;;6.15;3.58;;;;;;;;;;4958487;28;20434;-72
2021/04/08 07:27:19;;;;;;;6.43;3.35;;;;;;;;;;4966152;28;20023;-75
2021/04/08 07:29:52;;;;;;;5.15;3.05;;;;;;;;;;4968176;28;20137;-74
2021/04/08 07:32:23;;;;;;;7.38;4.32;;;;;;;;;;4969690;28;20044;-73
2021/04/08 07:35:18;;;;;;;4.28;2.25;;;;;;;;;;4968492;28;20034;-72
2021/04/08 07:37:57;;;;;;;6.15;3.08;;;;;;;;;;4974577;28;20054;-75
2021/04/08 07:40:46;;;;;;;4.35;2.00;;;;;;;;;;4970152;28;20113;-72
2021/04/08 07:43:13;;;;;;;5.28;3.13;;;;;;;;;;4965717;28;20035;-71
2021/04/08 07:45:39;;;;;;;5.35;2.33;;;;;;;;;;4969541;28;20477;-72
2021/04/08 07:48:06;;;;;;;5.00;2.85;;;;;;;;;;4967028;28;20034;-72
2021/04/08 07:50:37;;;;;;;9.07;3.65;;;;;;;;;;4967695;28;20537;-73
2021/04/08 07:53:04;;;;;;;5.00;2.95;;;;;;;;;;4969719;28;20034;-71
2021/04/08 07:55:36;;;;;;;5.40;2.65;;;;;;;;;;4966909;28;20117;-74
2021/04/08 07:58:12;;;;;;;20.42;6.63;;;;;;;;;;4966315;28;20027;-73
2021/04/08 08:00:45;;;;;;;6.07;3.47;;;;;;;;;;4974807;28;20089;-74
2021/04/08 08:03:23;;;;;;;3.15;2.15;;;;;;;;;;4968070;28;20034;-74
2021/04/08 08:06:03;;;;;;;6.05;2.70;;;;;;;;;;4965920;28;20022;-75
2021/04/08 08:08:36;;;;;;;3.53;2.20;;;;;;;;;;4967445;28;20486;-73
2021/04/08 08:11:13;;;;;;;4.55;2.35;;;;;;;;;;4966525;28;20271;-73
2021/04/08 08:13:47;;;;;;;7.43;2.28;;;;;;;;;;4968821;28;20030;-70
2021/04/08 08:16:17;;;;;;;4.93;2.40;;;;;;;;;;4966920;28;20029;-72
2021/04/08 08:18:44;;;;;;;4.57;2.42;;;;;;;;;;4966285;28;20038;-71
2021/04/08 08:21:10;;;;;;;3.88;2.63;;;;;;;;;;4968718;28;20498;-70
2021/04/08 08:23:41;;;;;;;5.25;2.78;;;;;;;;;;4978170;28;20026;-71
2021/04/08 08:26:28;;;;;;;4.53;2.92;;;;;;;;;;4978178;28;20033;-71
2021/04/08 08:29:02;;;;;;;5.15;2.42;;;;;;;;;;4978327;28;20058;-71
2021/04/08 08:31:40;;;;;;;4.78;2.65;;;;;;;;;;4978016;28;20470;-70
2021/04/08 08:34:11;;;;;;;6.82;3.00;;;;;;;;;;4961887;28;20038;-73
2021/04/08 08:36:42;;;;;;;4.47;2.72;;;;;;;;;;4958464;28;20077;-73
2021/04/08 08:39:14;;;;;;;7.30;3.15;;;;;;;;;;4942342;28;20047;-71
2021/04/08 08:41:43;;;;;;;5.13;3.05;;;;;;;;;;4958558;28;21216;-74
2021/04/08 08:44:14;;;;;;;5.40;3.35;;;;;;;;;;4958975;28;20011;-71
2021/04/08 08:46:44;;;;;;;7.63;4.03;;;;;;;;;;4984092;28;20026;-73
2021/04/08 08:49:14;;;;;;;6.30;3.30;;;;;;;;;;4985365;28;20113;-71
2021/04/08 08:51:41;;;;;;;6.23;3.17;;;;;;;;;;4970038;28;20069;-69
2021/04/08 08:54:07;;;;;;;4.78;3.20;;;;;;;;;;4983100;28;20627;-69
2021/04/08 08:56:35;;;;;;;5.65;2.78;;;;;;;;;;4984520;28;20026;-69
2021/04/08 08:59:01;;;;;;;9.52;7.35;;;;;;;;;;4984632;28;20106;-71
2021/04/08 09:01:28;;;;;;;8.65;6.82;;;;;;;;;;4977415;28;20411;-72
2021/04/08 09:03:55;;;;;;;4.53;4.03;;;;;;;;;;4977796;28;20103;-73
2021/04/08 09:06:21;;;;;;;5.70;3.30;;;;;;;;;;4977393;28;20027;-72
2021/04/08 09:08:55;;;;;;;6.63;3.75;;;;;;;;;;4977609;28;20030;-70
2021/04/08 09:11:28;;;;;;;5.95;3.72;;;;;;;;;;4977431;28;20027;-73
2021/04/08 09:13:55;;;;;;;5.78;3.67;;;;;;;;;;4994623;28;20030;-74
2021/04/08 09:16:21;;;;;;;6.57;4.57;;;;;;;;;;4976348;28;20032;-73
2021/04/08 09:19:19;;;;;;;8.77;4.95;;;;;;;;;;4977174;28;20057;-71
2021/04/08 09:21:47;;;;;;;7.07;4.15;;;;;;;;;;4962325;28;20113;-72
2021/04/08 09:24:14;;;;;;;8.60;4.78;;;;;;;;;;4994800;28;20554;-70
2021/04/08 09:26:41;;;;;;;6.03;4.00;;;;;;;;;;4994581;28;20034;-70
2021/04/08 09:29:08;;;;;;;14.93;6.72;;;;;;;;;;4977017;28;20098;-71
2021/04/08 09:31:35;;;;;;;9.05;5.00;;;;;;;;;;4977141;28;20510;-71
2021/04/08 09:34:04;;;;;;;8.55;4.50;;;;;;;;;;4976979;28;20368;-71
2021/04/08 09:36:35;;;;;;;7.25;5.30;;;;;;;;;;4976656;28;20023;-71
2021/04/08 09:39:01;;;;;;;8.93;4.55;;;;;;;;;;4976904;28;20026;-71
2021/04/08 09:41:39;;;;;;;14.05;11.38;;;;;;;;;;4976606;28;20475;-71
2021/04/08 09:44:05;;;;;;;10.73;6.05;;;;;;;;;;4976565;28;20038;-69
2021/04/08 09:46:40;;;;;;;7.72;4.85;;;;;;;;;;4976045;28;20494;-70
2021/04/08 09:49:06;;;;;;;12.93;7.82;;;;;;;;;;4976424;28;20030;-68
2021/04/08 09:51:36;;;;;;;12.35;6.90;;;;;;;;;;4976691;28;20022;-72
2021/04/08 09:54:06;;;;;;;7.55;4.72;;;;;;;;;;4976147;28;20483;-71
2021/04/08 09:56:43;;;;;;;186.75;80.43;;;;;;;;;;4987308;28;20487;-70
2021/04/08 09:59:09;;;;;;;23.38;11.23;;;;;;;;;;4982710;28;20026;-71
2021/04/08 10:01:35;;;;;;;140.10;54.58;;;;;;;;;;4965414;28;20065;-69
2021/04/08 10:04:15;;;;;;;51.17;17.17;;;;;;;;;;4985310;28;20113;-71
2021/04/08 10:06:41;;;;;;;74.93;33.65;;;;;;;;;;4967288;28;20494;-71
2021/04/08 10:09:25;;;;;;;55.92;27.02;;;;;;;;;;4957266;28;20031;-69
2021/04/08 10:11:51;;;;;;;59.80;29.25;;;;;;;;;;4979467;28;20109;-69
2021/04/08 10:14:22;;;;;;;35.38;22.77;;;;;;;;;;4964459;28;20149;-68
2021/04/08 10:17:01;;;;;;;11.63;7.65;;;;;;;;;;4978702;28;20371;-69
2021/04/08 10:19:31;;;;;;;26.17;13.07;;;;;;;;;;4957003;28;20468;-71
2021/04/08 10:22:01;;;;;;;15.53;7.43;;;;;;;;;;4974201;28;20110;-69
2021/04/08 10:24:33;;;;;;;10.40;6.18;;;;;;;;;;4956923;28;20118;-71
2021/04/08 10:27:02;;;;;;;9.50;5.55;;;;;;;;;;4956880;28;20130;-70
2021/04/08 10:29:34;;;;;;;12.88;6.70;;;;;;;;;;4974336;28;20101;-72
2021/04/08 10:32:01;;;;;;;23.77;13.23;;;;;;;;;;4956779;28;20117;-69
2021/04/08 10:34:35;;;;;;;23.45;11.50;;;;;;;;;;4974085;28;20085;-70
2021/04/08 10:37:02;;;;;;;22.48;11.32;;;;;;;;;;4973777;28;20050;-69
2021/04/08 10:39:29;;;;;;;9.20;5.25;;;;;;;;;;4962490;28;20034;-70
2021/04/08 10:42:01;;;;;;;26.98;11.27;;;;;;;;;;4976006;28;20018;-69
2021/04/08 10:44:32;;;;;;;60.13;24.95;;;;;;;;;;4975764;28;20030;-69
2021/04/08 10:47:13;;;;;;;20.20;9.85;;;;;;;;;;4976010;28;20088;-68
2021/04/08 10:49:49;;;;;;;41.63;18.25;;;;;;;;;;4976028;28;20018;-70
2021/04/08 10:52:16;;;;;;;10.18;4.80;;;;;;;;;;4975846;28;20034;-72
2021/04/08 10:54:48;;;;;;;16.90;7.88;;;;;;;;;;4975822;28;20022;-70
2021/04/08 10:57:15;;;;;;;19.33;6.97;;;;;;;;;;4975684;28;20434;-71
2021/04/08 10:59:42;;;;;;;11.30;5.35;;;;;;;;;;4978339;28;20436;-69
2021/04/08 11:02:21;;;;;;;19.77;8.38;;;;;;;;;;4979671;28;20050;-73
2021/04/08 11:04:48;;;;;;;33.60;13.10;;;;;;;;;;4979589;28;20023;-70
2021/04/08 11:07:33;;;;;;;15.77;7.10;;;;;;;;;;4981585;28;20049;-69
2021/04/08 11:10:06;;;;;;;12.05;4.93;;;;;;;;;;4979476;28;20034;-70
2021/04/08 11:12:32;;;;;;;9.68;5.35;;;;;;;;;;4979400;28;20053;-70
2021/04/08 11:14:59;;;;;;;10.57;4.85;;;;;;;;;;4979368;28;20468;-71
2021/04/08 11:17:26;;;;;;;7.50;4.05;;;;;;;;;;4979306;28;20026;-70
2021/04/08 11:19:53;;;;;;;13.93;6.95;;;;;;;;;;4997020;28;20052;-69
2021/04/08 11:22:20;;;;;;;9.00;5.38;;;;;;;;;;4997021;28;20026;-69
2021/04/08 11:24:48;;;;;;;8.32;5.18;;;;;;;;;;4979566;28;20471;-70
2021/04/08 11:27:50;;;;;;;9.77;5.22;;;;;;;;;;4979795;28;20034;-70
2021/04/08 11:30:47;;;;;;;11.23;7.20;;;;;;;;;;4979450;28;20444;-70
2021/04/08 11:33:28;;;;;;;14.95;7.97;;;;;;;;;;4996776;28;20026;-69
2021/04/08 11:35:58;;;;;;;11.60;6.28;;;;;;;;;;4996904;28;20170;-68
2021/04/08 11:38:41;;;;;;;12.98;6.82;;;;;;;;;;4996259;28;20057;-70
2021/04/08 11:41:08;;;;;;;20.75;8.82;;;;;;;;;;4973575;28;20054;-68
2021/04/08 11:43:42;;;;;;;11.27;7.22;;;;;;;;;;4977006;28;20085;-72
2021/04/08 11:46:28;;;;;;;13.50;8.90;;;;;;;;;;4959636;28;20081;-68
2021/04/08 11:49:32;;;;;;;10.90;6.88;;;;;;;;;;4958756;28;20041;-71
2021/04/08 11:55:04;;;;;;;9.98;5.95;;;;;;;;;;4919606;28;20488;-71
2021/04/08 11:57:34;;;;;;;16.20;13.70;;;;;;;;;;4972233;28;20042;-71
2021/04/08 12:00:07;;;;;;;10.65;6.90;;;;;;;;;;4972556;28;20046;-70
2021/04/08 12:02:35;;;;;;;74.75;36.03;;;;;;;;;;4990064;28;20406;-69
2021/04/08 12:05:24;;;;;;;19.48;9.25;;;;;;;;;;4996613;28;20034;-71
2021/04/08 12:08:01;;;;;;;57.35;27.30;;;;;;;;;;4969894;28;20096;-70
2021/04/08 12:10:31;;;;;;;21.98;12.38;;;;;;;;;;4975388;28;20530;-69
2021/04/08 12:13:03;;;;;;;15.80;9.85;;;;;;;;;;4958694;28;20026;-68
2021/04/08 12:15:35;;;;;;;29.88;16.25;;;;;;;;;;4958159;28;20133;-69
2021/04/08 12:18:01;;;;;;;19.30;10.63;;;;;;;;;;4965252;28;20022;-68
2021/04/08 12:20:28;;;;;;;38.42;20.60;;;;;;;;;;4996008;28;20034;-69
2021/04/08 12:23:13;;;;;;;19.98;10.05;;;;;;;;;;4978497;28;20049;-69
2021/04/08 12:25:44;;;;;;;16.23;8.60;;;;;;;;;;4978491;28;20117;-68
2021/04/08 12:28:11;;;;;;;28.13;14.85;;;;;;;;;;4995822;28;20382;-69
2021/04/08 12:30:46;;;;;;;18.10;12.07;;;;;;;;;;4995987;28;20114;-68
2021/04/08 13:41:02;;;;;;;11.38;7.15;;;;;;;;;;5713258;23;20043;-74
2021/04/08 13:43:29;;;;;;;15.18;9.32;;;;;;;;;;4974305;28;20026;-72
2021/04/08 13:45:55;;;;;;;19.33;8.80;;;;;;;;;;4964017;28;20035;-73
2021/04/08 13:48:21;;;;;;;10.48;6.07;;;;;;;;;;4963406;28;20086;-76
2021/04/08 13:50:47;;;;;;;15.55;7.85;;;;;;;;;;4962688;28;20086;-75
2021/04/08 13:53:13;;;;;;;13.73;7.28;;;;;;;;;;4965445;28;20034;-73
2021/04/08 13:55:39;;;;;;;17.10;10.20;;;;;;;;;;4965754;28;20047;-75
2021/04/08 13:58:05;;;;;;;27.98;12.77;;;;;;;;;;4963222;28;20523;-74
2021/04/08 14:00:31;;;;;;;9.02;5.50;;;;;;;;;;4964873;28;21067;-74
2021/04/08 14:02:57;;;;;;;10.02;5.43;;;;;;;;;;4971469;28;20030;-74
2021/04/08 14:26:10;;;;;;;13.70;7.05;;;;;;;;;;5236978;23;20078;-70
2021/04/08 14:28:36;;;;;;;12.27;3.65;;;;;;;;;;4947429;28;20026;-69
2021/04/08 14:31:03;;;;;;;12.80;4.15;;;;;;;;;;4954930;29;20035;-68
2021/04/08 14:33:31;;;;;;;9.30;4.75;;;;;;;;;;4984357;28;20027;-70
2021/04/08 14:35:57;;;;;;;9.77;4.72;;;;;;;;;;4973938;28;20114;-70
2021/04/08 14:38:23;;;;;;;17.17;7.40;;;;;;;;;;4972168;28;20113;-70
2021/04/08 14:40:49;;;;;;;15.20;6.93;;;;;;;;;;4976129;28;20030;-70
2021/04/08 14:43:20;;;;;;;61.92;18.08;;;;;;;;;;4993401;28;20030;-71
2021/04/08 14:45:49;;;;;;;21.65;7.97;;;;;;;;;;4993409;28;20053;-69
2021/04/08 14:48:15;;;;;;;49.72;12.75;;;;;;;;;;4976086;28;20082;-70
2021/04/08 14:50:42;;;;;;;29.83;12.00;;;;;;;;;;4975898;28;20097;-70
2021/04/08 14:53:08;;;;;;;38.08;16.17;;;;;;;;;;4993049;28;20467;-70
2021/04/08 14:55:35;;;;;;;33.05;11.27;;;;;;;;;;4975840;28;20026;-72
2021/04/08 14:58:01;;;;;;;16.45;6.35;;;;;;;;;;4976277;28;20023;-71
2021/04/08 15:00:30;;;;;;;18.02;10.60;;;;;;;;;;4993445;28;20023;-70
2021/04/08 15:02:56;;;;;;;24.38;13.18;;;;;;;;;;4975968;28;20022;-69
2021/04/08 15:05:23;;;;;;;45.40;19.65;;;;;;;;;;4975938;28;20497;-71
2021/04/08 15:07:49;;;;;;;82.30;33.30;;;;;;;;;;4975864;28;20113;-72
2021/04/08 15:10:16;;;;;;;52.15;19.75;;;;;;;;;;4975557;28;20034;-71
2021/04/08 15:12:42;;;;;;;40.90;17.20;;;;;;;;;;4975894;28;20037;-70
2021/04/08 15:15:10;;;;;;;21.83;9.98;;;;;;;;;;4992633;28;20027;-70
2021/04/08 15:17:37;;;;;;;18.52;8.63;;;;;;;;;;4981559;28;20030;-72
2021/04/08 15:20:04;;;;;;;16.05;5.22;;;;;;;;;;4975773;28;20027;-70
2021/04/08 15:22:30;;;;;;;16.90;7.00;;;;;;;;;;4975605;28;20085;-70
2021/04/08 15:24:56;;;;;;;17.35;7.85;;;;;;;;;;4975642;28;20057;-73
2021/04/08 15:27:25;;;;;;;17.35;7.38;;;;;;;;;;4975822;28;20034;-72
2021/04/08 15:29:51;;;;;;;17.63;5.65;;;;;;;;;;4992974;28;20429;-71
2021/04/08 15:32:18;;;;;;;19.88;8.38;;;;;;;;;;4975591;28;20062;-71
2021/04/08 15:34:47;;;;;;;11.40;5.10;;;;;;;;;;4992905;28;20034;-71
2021/04/08 15:37:13;;;;;;;10.73;5.32;;;;;;;;;;4993035;28;20065;-71
2021/04/08 15:39:39;;;;;;;18.80;7.43;;;;;;;;;;4992925;28;20054;-72
2021/04/08 15:42:06;;;;;;;13.82;6.30;;;;;;;;;;4993006;28;20053;-70
2021/04/08 15:44:34;;;;;;;15.75;6.57;;;;;;;;;;4993729;28;20033;-72
2021/04/08 15:47:00;;;;;;;11.50;5.45;;;;;;;;;;4996703;28;20062;-70
2021/04/08 15:49:26;;;;;;;28.35;12.07;;;;;;;;;;4996614;28;20029;-69
2021/04/08 15:51:52;;;;;;;19.67;10.75;;;;;;;;;;4996704;28;20030;-70
2021/04/08 15:54:18;;;;;;;15.98;7.15;;;;;;;;;;4996437;28;20026;-73
2021/04/08 15:56:45;;;;;;;15.18;6.65;;;;;;;;;;4996527;28;20035;-71
2021/04/08 15:59:12;;;;;;;15.25;7.07;;;;;;;;;;4996576;28;20037;-70
2021/04/08 16:01:38;;;;;;;11.77;6.38;;;;;;;;;;4996694;28;20030;-70
2021/04/08 16:04:04;;;;;;;20.60;8.55;;;;;;;;;;4978725;28;20037;-69
2021/04/08 16:06:35;;;;;;;16.73;6.47;;;;;;;;;;4996360;28;20541;-69
2021/04/08 16:09:01;;;;;;;20.10;8.80;;;;;;;;;;4996371;28;20050;-69
2021/04/08 16:11:28;;;;;;;20.45;9.25;;;;;;;;;;4996240;28;20026;-71
2021/04/08 16:13:54;;;;;;;17.60;8.07;;;;;;;;;;4978680;28;20027;-72
2021/04/08 16:16:20;;;;;;;20.67;9.90;;;;;;;;;;4978673;28;20036;-70
2021/04/08 16:18:48;;;;;;;16.20;7.63;;;;;;;;;;4996133;28;20041;-74
2021/04/08 16:21:15;;;;;;;61.35;16.88;;;;;;;;;;4978867;28;20113;-71
2021/04/08 16:23:47;;;;;;;183.45;36.35;;;;;;;;;;4988434;28;20018;-75
2021/04/08 16:26:13;;;;;;;233.57;44.30;;;;;;;;;;4961172;28;20499;-74
2021/04/08 16:28:42;;;;;;;214.55;42.30;;;;;;;;;;4959060;28;20039;-74
2021/04/08 16:31:11;;;;;;;64.53;17.75;;;;;;;;;;4976126;28;20063;-74
2021/04/08 16:33:50;;;;;;;100.68;23.48;;;;;;;;;;4976412;28;20031;-73
2021/04/08 16:36:16;;;;;;;62.50;20.63;;;;;;;;;;4976583;28;20026;-71
2021/04/08 16:38:44;;;;;;;36.95;13.50;;;;;;;;;;4976241;28;20483;-73
2021/04/08 16:41:11;;;;;;;21.58;10.48;;;;;;;;;;4959099;28;20497;-72
2021/04/08 16:43:46;;;;;;;40.17;16.75;;;;;;;;;;4976021;28;20031;-74
2021/04/08 16:46:12;;;;;;;35.45;13.90;;;;;;;;;;4976174;28;20529;-72
2021/04/08 16:48:38;;;;;;;42.67;16.58;;;;;;;;;;4976082;28;20023;-71
2021/04/08 16:51:04;;;;;;;56.58;22.45;;;;;;;;;;4958581;28;20113;-70
2021/04/08 16:53:33;;;;;;;83.90;34.40;;;;;;;;;;4976024;28;20031;-72
2021/04/08 16:56:08;;;;;;;117.20;45.83;;;;;;;;;;4975824;28;20031;-72
2021/04/08 16:58:34;;;;;;;71.03;29.33;;;;;;;;;;4975926;28;20029;-71
2021/04/08 17:01:00;;;;;;;41.13;18.08;;;;;;;;;;4958567;28;20391;-71
2021/04/08 17:03:26;;;;;;;43.00;17.52;;;;;;;;;;4942627;28;20023;-72
2021/04/08 17:05:52;;;;;;;30.73;12.45;;;;;;;;;;4975920;28;20356;-72
2021/04/08 17:08:39;;;;;;;25.35;12.75;;;;;;;;;;4975730;28;20395;-73
2021/04/08 17:11:04;;;;;;;24.80;11.75;;;;;;;;;;4975566;28;20039;-71
2021/04/08 17:13:31;;;;;;;37.40;18.17;;;;;;;;;;4972345;28;20491;-71
2021/04/08 17:15:59;;;;;;;44.58;18.90;;;;;;;;;;4958119;28;20035;-72
2021/04/08 17:18:25;;;;;;;45.17;19.42;;;;;;;;;;4958229;28;20027;-71
2021/04/08 17:20:51;;;;;;;42.55;18.70;;;;;;;;;;4975715;28;20031;-71
2021/04/08 17:23:17;;;;;;;47.95;20.42;;;;;;;;;;4975495;28;20054;-70
2021/04/08 17:25:43;;;;;;;37.35;16.30;;;;;;;;;;4975130;28;20104;-70
2021/04/08 17:28:09;;;;;;;60.05;25.25;;;;;;;;;;4975470;28;20098;-69
2021/04/08 17:30:35;;;;;;;59.15;24.85;;;;;;;;;;4975366;28;20375;-71
2021/04/08 17:33:01;;;;;;;61.47;22.27;;;;;;;;;;4975226;28;20019;-71
2021/04/08 17:35:30;;;;;;;81.97;43.88;;;;;;;;;;4975159;28;20034;-69
2021/04/08 17:37:55;;;;;;;40.67;17.67;;;;;;;;;;4975271;28;20030;-67
2021/04/08 17:40:22;;;;;;;33.75;17.15;;;;;;;;;;4973192;28;20471;-68
2021/04/08 17:42:48;;;;;;;22.50;11.38;;;;;;;;;;4955423;28;20106;-66
2021/04/08 17:45:15;;;;;;;36.53;19.83;;;;;;;;;;4979980;28;20114;-69
2021/04/08 17:47:41;;;;;;;48.50;17.05;;;;;;;;;;4989926;28;20030;-70
2021/04/08 17:50:08;;;;;;;89.85;32.20;;;;;;;;;;4987894;28;20026;-68
2021/04/08 17:52:36;;;;;;;82.35;31.70;;;;;;;;;;4963316;28;20039;-68
2021/04/08 17:55:04;;;;;;;58.40;20.90;;;;;;;;;;4994208;28;20042;-70
2021/04/08 17:57:33;;;;;;;62.95;22.52;;;;;;;;;;4993953;28;20022;-68
2021/04/08 17:59:59;;;;;;;64.82;23.88;;;;;;;;;;4983559;28;20034;-70
2021/04/08 18:02:25;;;;;;;65.55;24.48;;;;;;;;;;4992325;28;20101;-69
2021/04/08 18:04:51;;;;;;;63.08;24.98;;;;;;;;;;4993921;28;20526;-69
2021/04/08 18:07:17;;;;;;;63.28;23.52;;;;;;;;;;4982905;28;20102;-69
2021/04/08 18:09:43;;;;;;;47.45;20.25;;;;;;;;;;4974600;28;20100;-70
2021/04/08 18:12:10;;;;;;;51.80;20.50;;;;;;;;;;4993543;28;20085;-69
2021/04/08 18:14:36;;;;;;;34.90;15.30;;;;;;;;;;4993769;28;20033;-69
2021/04/08 18:17:04;;;;;;;38.78;16.58;;;;;;;;;;4963990;28;20031;-69
2021/04/08 18:19:31;;;;;;;38.28;16.52;;;;;;;;;;4963889;28;20047;-70
2021/04/08 18:21:56;;;;;;;28.42;12.75;;;;;;;;;;4931793;28;20034;-68
2021/04/08 18:24:23;;;;;;;29.35;11.68;;;;;;;;;;4965263;28;20031;-69
2021/04/08 18:26:49;;;;;;;18.23;8.50;;;;;;;;;;4963046;28;20051;-67
2021/04/08 18:29:15;;;;;;;32.08;11.48;;;;;;;;;;4953145;28;20030;-68
2021/04/08 18:31:41;;;;;;;23.05;8.63;;;;;;;;;;4973044;28;20069;-69
2021/04/08 18:34:07;;;;;;;31.60;12.07;;;;;;;;;;4963039;28;20034;-68
2021/04/08 18:36:34;;;;;;;23.95;8.65;;;;;;;;;;4967616;28;20027;-69
2021/04/08 18:39:00;;;;;;;24.17;7.20;;;;;;;;;;4964064;28;20026;-68
2021/04/08 18:41:26;;;;;;;24.98;7.95;;;;;;;;;;4963456;28;20034;-68
2021/04/08 18:43:52;;;;;;;49.95;15.55;;;;;;;;;;4964890;28;20025;-68
2021/04/08 18:46:18;;;;;;;18.27;7.88;;;;;;;;;;4963480;28;20110;-68
2021/04/08 18:48:45;;;;;;;27.92;10.32;;;;;;;;;;4963044;28;20482;-69
2021/04/08 18:51:11;;;;;;;18.50;6.70;;;;;;;;;;4964656;28;20026;-69
2021/04/08 18:53:37;;;;;;;34.75;11.07;;;;;;;;;;4962482;28;20384;-69
2021/04/08 18:56:03;;;;;;;21.45;7.30;;;;;;;;;;4946034;28;20027;-70
2021/04/08 18:58:38;;;;;;;29.38;7.78;;;;;;;;;;4964431;28;20090;-69
2021/04/08 19:01:34;;;;;;;25.73;8.00;;;;;;;;;;4967068;28;20090;-72
2021/04/08 19:20:09;;;;;;;20.27;7.20;;;;;;;;;;5130439;23;20133;-73
2021/04/08 19:22:35;;;;;;;12.93;5.60;;;;;;;;;;4975228;28;20566;-74
2021/04/08 19:25:02;;;;;;;15.68;5.82;;;;;;;;;;4987036;28;20051;-72
2021/04/08 19:27:28;;;;;;;12.45;5.53;;;;;;;;;;4972056;28;20030;-73
2021/04/08 19:29:54;;;;;;;25.98;8.35;;;;;;;;;;4986581;28;20034;-74
2021/04/08 19:32:20;;;;;;;11.18;4.75;;;;;;;;;;4976534;28;20037;-73
2021/04/08 19:34:46;;;;;;;11.88;6.55;;;;;;;;;;4992491;28;20035;-74
2021/04/08 19:37:12;;;;;;;11.90;4.93;;;;;;;;;;4986816;28;20034;-73
2021/04/08 19:39:38;;;;;;;16.52;6.55;;;;;;;;;;4966985;28;20386;-72
2021/04/08 19:42:05;;;;;;;13.80;5.45;;;;;;;;;;4985372;28;20030;-72
2021/04/08 19:44:31;;;;;;;11.02;5.32;;;;;;;;;;4984912;28;20023;-74
2021/04/08 19:46:57;;;;;;;9.18;4.30;;;;;;;;;;4995321;28;20034;-73
2021/04/08 19:49:23;;;;;;;9.63;4.72;;;;;;;;;;4984007;28;20030;-72
2021/04/08 19:51:49;;;;;;;10.93;4.80;;;;;;;;;;4986187;28;20109;-75
2021/04/08 19:54:17;;;;;;;11.63;4.95;;;;;;;;;;4984458;28;20104;-73
2021/04/08 19:56:43;;;;;;;15.02;6.53;;;;;;;;;;4986189;28;20372;-73
2021/04/08 19:59:09;;;;;;;12.85;5.85;;;;;;;;;;4976696;28;20106;-73
2021/04/08 20:01:36;;;;;;;12.98;6.50;;;;;;;;;;4976303;28;20034;-72
2021/04/08 20:04:02;;;;;;;25.05;10.10;;;;;;;;;;4976561;28;20109;-71
2021/04/08 20:39:10;;;;;;;24.75;7.57;;;;;;;;;;5598734;23;20112;-75
2021/04/08 20:41:36;;;;;;;23.63;7.47;;;;;;;;;;4968870;28;20085;-77
2021/04/08 20:44:02;;;;;;;22.63;8.38;;;;;;;;;;4964857;28;20030;-76
2021/04/08 20:46:28;;;;;;;23.98;8.35;;;;;;;;;;4966119;28;20042;-75
2021/04/08 20:48:54;;;;;;;17.20;7.95;;;;;;;;;;4966149;28;20023;-75
2021/04/08 20:51:20;;;;;;;15.38;6.75;;;;;;;;;;4964652;28;20498;-74
2021/04/08 20:53:46;;;;;;;16.65;6.85;;;;;;;;;;4967010;28;20019;-74
2021/04/08 20:56:12;;;;;;;16.90;7.82;;;;;;;;;;4965242;28;20487;-71
2021/04/08 20:58:38;;;;;;;13.43;7.32;;;;;;;;;;4966363;28;20027;-71
2021/04/08 21:01:07;;;;;;;19.40;7.18;;;;;;;;;;4963827;28;20050;-71
2021/04/08 21:03:33;;;;;;;21.90;6.35;;;;;;;;;;4974062;28;20114;-71
2021/04/08 21:05:59;;;;;;;18.90;6.75;;;;;;;;;;4969364;28;20447;-71
2021/04/08 21:08:25;;;;;;;25.42;7.72;;;;;;;;;;4957984;28;20102;-71
2021/04/08 21:10:52;;;;;;;17.08;7.13;;;;;;;;;;4956368;29;20039;-71
2021/04/08 21:13:18;;;;;;;13.68;6.03;;;;;;;;;;4956024;28;20416;-71
2021/04/08 21:15:44;;;;;;;15.60;7.13;;;;;;;;;;4956240;29;20361;-71
2021/04/08 21:18:10;;;;;;;18.23;7.65;;;;;;;;;;4954946;29;20430;-72
2021/04/08 21:20:36;;;;;;;18.55;7.00;;;;;;;;;;4956071;29;20054;-71
2021/04/08 21:23:02;;;;;;;17.05;6.63;;;;;;;;;;4956047;28;20032;-72
2021/04/08 21:25:28;;;;;;;13.52;6.90;;;;;;;;;;4955927;29;20031;-72
2021/04/08 21:27:54;;;;;;;11.73;6.00;;;;;;;;;;4955909;29;20488;-71
2021/04/08 21:30:21;;;;;;;14.80;7.72;;;;;;;;;;4955868;29;20038;-71
2021/04/08 21:32:47;;;;;;;13.73;6.72;;;;;;;;;;4957419;28;20080;-72
2021/04/08 21:35:13;;;;;;;14.38;6.57;;;;;;;;;;4963634;28;20086;-71
2021/04/08 21:37:40;;;;;;;16.08;7.80;;;;;;;;;;4965175;28;20383;-72
2021/04/08 21:40:07;;;;;;;17.13;6.75;;;;;;;;;;4960747;28;20047;-72
2021/04/08 21:42:33;;;;;;;12.60;6.75;;;;;;;;;;4973591;28;20053;-72
2021/04/08 21:44:59;;;;;;;16.35;6.32;;;;;;;;;;4962676;28;20468;-73